createdAt,value
2019-06-07T00:00:38.054Z,2.57
2019-06-07T00:02:56.406Z,2.20
2019-06-07T00:05:23.981Z,2.13
2019-06-07T00:07:51.481Z,1.60
2019-06-07T00:10:34.881Z,1.70
2019-06-07T00:12:48.532Z,1.73
2019-06-07T00:15:24.139Z,2.00
2019-06-07T00:17:45.780Z,2.10
2019-06-07T00:20:17.556Z,1.90
2019-06-07T00:22:43.644Z,2.17
2019-06-07T00:25:14.804Z,2.00
2019-06-07T00:27:40.930Z,1.83
2019-06-07T00:30:33.724Z,2.03
2019-06-07T00:32:38.242Z,2.03
2019-06-07T00:35:06.164Z,2.10
2019-06-07T00:37:34.132Z,2.50
2019-06-07T00:40:14.182Z,2.07
2019-06-07T00:42:31.705Z,2.23
2019-06-07T00:44:59.778Z,1.90
2019-06-07T00:47:27.663Z,2.00
2019-06-07T00:49:55.352Z,2.13
2019-06-07T00:53:11.695Z,1.90
2019-06-07T00:54:52.578Z,1.90
2019-06-07T00:57:22.212Z,2.03
2019-06-07T00:59:50.104Z,1.87
2019-06-07T01:02:19.242Z,1.90
2019-06-07T01:04:47.042Z,2.53
2019-06-07T01:07:17.084Z,2.20
2019-06-07T01:09:44.689Z,1.77
2019-06-07T01:12:14.270Z,2.07
2019-06-07T01:14:42.159Z,2.23
2019-06-07T01:17:39.184Z,2.23
2019-06-07T01:19:53.878Z,2.20
2019-06-07T01:22:23.490Z,2.83
2019-06-07T01:24:51.521Z,1.97
2019-06-07T01:27:22.544Z,2.60
2019-06-07T01:29:49.017Z,2.13
2019-06-07T01:32:18.762Z,1.93
2019-06-07T01:34:46.635Z,2.33
2019-06-07T01:37:14.482Z,2.70
2019-06-07T01:39:42.225Z,2.47
2019-06-07T01:42:10.073Z,2.37
2019-06-07T01:44:37.851Z,2.40
2019-06-07T01:47:05.825Z,2.43
2019-06-07T01:49:33.686Z,2.80
2019-06-07T01:52:01.452Z,2.43
2019-06-07T01:56:59.132Z,2.60
2019-06-07T01:59:28.454Z,2.20
2019-06-07T02:01:57.028Z,2.07
2019-06-07T02:04:28.988Z,2.53
2019-06-07T02:06:54.643Z,2.90
2019-06-07T02:09:23.510Z,2.70
2019-06-07T02:11:52.165Z,2.67
2019-06-07T02:14:22.310Z,2.97
2019-06-07T02:16:50.355Z,2.70
2019-06-07T02:19:19.426Z,2.53
2019-06-07T02:21:47.416Z,2.50
2019-06-07T02:24:15.282Z,2.13
2019-06-07T02:26:43.149Z,2.50
2019-06-07T02:29:10.998Z,2.67
2019-06-07T02:31:39.978Z,2.43
2019-06-07T02:34:08.083Z,2.50
2019-06-07T02:36:41.245Z,2.77
2019-06-07T02:39:06.932Z,2.90
2019-06-07T02:41:38.770Z,2.27
2019-06-07T02:44:04.770Z,2.40
2019-06-07T02:46:44.741Z,3.10
2019-06-07T02:49:02.650Z,2.40
2019-06-07T02:51:39.994Z,2.80
2019-06-07T02:54:00.191Z,2.33
2019-06-07T02:56:39.067Z,2.50
2019-06-07T02:58:57.902Z,2.63
2019-06-07T03:01:28.592Z,2.20
2019-06-07T03:03:55.456Z,2.93
2019-06-07T03:06:23.296Z,4.20
2019-06-07T03:08:51.214Z,3.40
2019-06-07T03:11:19.162Z,2.10
2019-06-07T03:13:48.389Z,3.00
2019-06-07T03:16:20.302Z,2.20
2019-06-07T03:19:07.872Z,3.03
2019-06-07T03:21:36.571Z,3.27
2019-06-07T03:24:04.529Z,2.53
2019-06-07T03:26:45.589Z,2.27
2019-06-07T03:29:01.908Z,3.00
2019-06-07T03:31:41.707Z,3.00
2019-06-07T03:34:08.658Z,2.70
2019-06-07T03:36:39.237Z,3.00
2019-06-07T03:39:07.081Z,2.40
2019-06-07T03:41:43.867Z,2.47
2019-06-07T03:44:05.025Z,2.80
2019-06-07T03:46:37.511Z,3.43
2019-06-07T03:49:02.663Z,3.37
2019-06-07T03:51:32.943Z,2.87
2019-06-07T03:54:00.823Z,3.13
2019-06-07T03:56:31.343Z,2.87
2019-06-07T03:58:57.830Z,2.83
2019-06-07T04:01:32.333Z,2.33
2019-06-07T04:04:00.990Z,2.60
2019-06-07T04:06:32.488Z,2.10
2019-06-07T04:08:58.357Z,3.07
2019-06-07T04:11:26.420Z,2.73
2019-06-07T04:13:54.409Z,2.70
2019-06-07T04:16:22.192Z,2.80
2019-06-07T04:18:51.166Z,3.00
2019-06-07T04:21:18.951Z,2.80
2019-06-07T04:23:46.543Z,2.90
2019-06-07T04:26:14.251Z,3.10
2019-06-07T04:29:31.114Z,2.80
2019-06-07T04:31:11.455Z,3.10
2019-06-07T04:33:41.256Z,2.90
2019-06-07T04:36:08.478Z,2.70
2019-06-07T04:38:39.357Z,2.50
2019-06-07T04:41:05.472Z,3.00
2019-06-07T04:43:33.526Z,3.13
2019-06-07T04:46:04.218Z,2.70
2019-06-07T04:48:33.334Z,2.47
2019-06-07T04:51:01.640Z,2.70
2019-06-07T04:53:30.862Z,3.07
2019-06-07T04:55:58.987Z,2.63
2019-06-07T04:58:26.855Z,2.40
2019-06-07T05:01:02.861Z,2.70
2019-06-07T05:03:24.007Z,2.43
2019-06-07T05:05:51.584Z,2.60
2019-06-07T05:08:28.019Z,2.70
2019-06-07T05:10:48.577Z,2.27
2019-06-07T05:13:16.095Z,2.63
2019-06-07T05:15:43.637Z,2.07
2019-06-07T05:20:40.800Z,2.40
2019-06-07T05:23:07.725Z,2.90
2019-06-07T05:25:36.473Z,2.52
2019-06-07T05:28:05.296Z,2.20
2019-06-07T05:33:04.910Z,2.20
2019-06-07T05:35:33.121Z,2.30
2019-06-07T05:38:01.004Z,2.60
2019-06-07T05:40:34.917Z,2.50
2019-06-07T05:43:03.191Z,2.60
2019-06-07T05:45:35.039Z,2.10
2019-06-07T05:48:02.661Z,2.80
2019-06-07T05:50:41.382Z,3.20
2019-06-07T05:52:59.802Z,2.23
2019-06-07T05:55:27.741Z,2.20
2019-06-07T05:57:55.402Z,2.43
2019-06-07T06:00:23.203Z,2.40
2019-06-07T06:03:03.980Z,2.30
2019-06-07T06:05:33.406Z,2.57
2019-06-07T06:07:51.008Z,2.10
2019-06-07T06:10:19.574Z,2.57
2019-06-07T06:12:51.638Z,1.70
2019-06-07T06:15:17.317Z,2.10
2019-06-07T06:17:49.053Z,2.13
2019-06-07T06:20:15.134Z,1.70
2019-06-07T06:22:44.729Z,2.00
2019-06-07T06:25:48.297Z,2.90
2019-06-07T06:30:13.878Z,2.73
2019-06-07T06:32:49.275Z,2.70
2019-06-07T06:35:11.096Z,2.30
2019-06-07T06:37:41.921Z,2.30
2019-06-07T06:40:08.060Z,2.90
2019-06-07T06:42:35.597Z,2.60
2019-06-07T06:45:04.046Z,2.47
2019-06-07T06:47:31.834Z,2.43
2019-06-07T06:50:01.972Z,2.20
2019-06-07T06:52:29.961Z,2.63
2019-06-07T06:55:00.856Z,2.30
2019-06-07T06:57:27.873Z,2.10
2019-06-07T06:59:55.556Z,2.03
2019-06-07T07:02:23.114Z,2.60
2019-06-07T07:04:52.543Z,2.00
2019-06-07T07:07:20.138Z,1.90
2019-06-07T07:09:54.055Z,2.50
2019-06-07T07:12:17.890Z,1.80
2019-06-07T07:14:47.886Z,1.80
2019-06-07T07:17:15.472Z,1.83
2019-06-07T07:19:47.013Z,2.03
2019-06-07T07:22:12.882Z,1.93
2019-06-07T07:24:41.837Z,1.80
2019-06-07T07:27:09.796Z,2.00
2019-06-07T07:29:37.584Z,1.80
2019-06-07T07:32:05.266Z,1.77
2019-06-07T07:34:36.896Z,1.97
2019-06-07T07:37:03.952Z,1.70
2019-06-07T07:39:31.820Z,2.57
2019-06-07T07:42:18.208Z,2.00
2019-06-07T07:44:29.288Z,2.07
2019-06-07T07:46:57.150Z,2.10
2019-06-07T07:49:24.734Z,1.80
2019-06-07T07:51:55.069Z,2.13
2019-06-07T07:54:21.793Z,1.80
2019-06-07T07:56:51.573Z,1.70
2019-06-07T07:59:19.349Z,1.50
2019-06-07T08:01:48.644Z,1.90
2019-06-07T08:04:16.867Z,2.00
2019-06-07T08:06:44.489Z,2.47
2019-06-07T08:09:12.172Z,1.73
2019-06-07T08:11:39.824Z,1.63
2019-06-07T08:14:07.415Z,1.93
2019-06-07T08:16:35.176Z,1.60
2019-06-07T08:19:04.290Z,1.93
2019-06-07T08:21:32.606Z,1.90
2019-06-07T08:24:04.224Z,1.87
2019-06-07T08:26:30.422Z,1.80
2019-06-07T08:29:01.920Z,1.50
2019-06-07T08:31:27.693Z,1.80
2019-06-07T08:33:58.022Z,1.70
2019-06-07T08:36:41.324Z,1.90
2019-06-07T08:39:00.493Z,1.60
2019-06-07T08:41:26.956Z,1.77
2019-06-07T08:43:56.835Z,1.90
2019-06-07T08:46:24.948Z,1.67
2019-06-07T08:48:54.037Z,1.70
2019-06-07T08:51:22.875Z,2.07
2019-06-07T08:54:08.581Z,1.70
2019-06-07T08:56:20.150Z,1.50
2019-06-07T08:58:47.660Z,1.50
2019-06-07T09:01:15.167Z,1.67
2019-06-07T09:03:42.709Z,1.40
2019-06-07T09:06:53.986Z,1.50
2019-06-07T09:08:40.156Z,1.37
2019-06-07T09:11:11.300Z,1.43
2019-06-07T09:13:40.075Z,1.57
2019-06-07T09:16:09.128Z,1.70
2019-06-07T09:18:43.871Z,1.60
2019-06-07T09:21:09.620Z,2.00
2019-06-07T09:23:37.431Z,1.53
2019-06-07T09:26:15.901Z,1.67
2019-06-07T09:28:35.001Z,2.10
2019-06-07T09:31:06.921Z,2.60
2019-06-07T09:33:32.338Z,2.13
2019-06-07T09:36:01.643Z,1.53
2019-06-07T09:38:30.097Z,1.90
2019-06-07T09:40:59.729Z,1.80
2019-06-07T09:45:58.235Z,1.33
2019-06-07T09:49:09.193Z,2.10
2019-06-07T09:51:03.422Z,1.80
2019-06-07T09:53:25.433Z,1.70
2019-06-07T09:55:52.994Z,1.83
2019-06-07T10:00:50.145Z,1.50
2019-06-07T10:03:22.208Z,1.60
2019-06-07T10:05:47.190Z,2.07
2019-06-07T10:09:14.706Z,1.57
2019-06-07T10:10:44.201Z,1.53
2019-06-07T10:13:11.841Z,1.47
2019-06-07T10:15:39.666Z,2.10
2019-06-07T10:18:07.336Z,1.90
2019-06-07T10:20:34.877Z,2.00
2019-06-07T10:23:03.727Z,1.40
2019-06-07T10:25:31.435Z,1.80
2019-06-07T10:28:00.049Z,1.50
2019-06-07T10:30:27.663Z,1.40
2019-06-07T10:32:55.229Z,1.50
2019-06-07T10:35:22.804Z,1.50
2019-06-07T10:37:50.393Z,1.60
2019-06-07T10:40:17.993Z,1.50
2019-06-07T10:42:45.534Z,1.40
2019-06-07T10:45:13.302Z,1.50
2019-06-07T10:47:40.881Z,1.40
2019-06-07T10:50:08.414Z,1.50
2019-06-07T10:52:36.206Z,1.40
2019-06-07T10:55:04.578Z,1.40
2019-06-07T10:57:32.361Z,1.80
2019-06-07T11:00:00.139Z,1.30
2019-06-07T11:02:29.192Z,1.77
2019-06-07T11:04:57.343Z,1.33
2019-06-07T11:07:25.667Z,1.30
2019-06-07T11:10:06.088Z,1.70
2019-06-07T11:12:23.408Z,1.90
2019-06-07T11:14:51.500Z,1.77
2019-06-07T11:17:19.233Z,1.60
2019-06-07T11:19:47.486Z,1.83
2019-06-07T11:22:16.170Z,1.57
2019-06-07T11:24:45.108Z,1.33
2019-06-07T11:27:14.024Z,1.47
2019-06-07T11:29:42.974Z,1.57
2019-06-07T11:32:10.808Z,1.30
2019-06-07T11:34:39.234Z,1.70
2019-06-07T11:37:07.744Z,1.50
2019-06-07T11:39:36.560Z,1.37
2019-06-07T11:42:05.724Z,1.40
2019-06-07T11:44:33.863Z,1.10
2019-06-07T11:47:01.674Z,1.90
2019-06-07T11:49:29.792Z,1.50
2019-06-07T11:51:58.033Z,1.47
2019-06-07T11:54:25.635Z,1.37
2019-06-07T11:56:53.937Z,1.50
2019-06-07T11:59:21.951Z,1.30
2019-06-07T12:01:50.176Z,1.47
2019-06-07T12:04:32.365Z,1.83
2019-06-07T12:06:47.973Z,1.40
2019-06-07T12:09:16.922Z,1.43
2019-06-07T12:11:44.734Z,1.30
2019-06-07T12:14:12.876Z,1.43
2019-06-07T12:16:40.504Z,1.33
2019-06-07T12:19:09.548Z,1.40
2019-06-07T12:21:37.615Z,1.80
2019-06-07T12:24:06.094Z,3.60
2019-06-07T12:26:33.764Z,2.50
2019-06-07T12:29:01.654Z,2.80
2019-06-07T12:31:29.304Z,2.10
2019-06-07T12:33:57.096Z,2.23
2019-06-07T12:36:24.669Z,2.40
2019-06-07T12:38:52.186Z,1.47
2019-06-07T12:41:20.464Z,1.60
2019-06-07T12:43:47.979Z,2.90
2019-06-07T12:46:21.131Z,2.57
2019-06-07T12:48:45.014Z,3.63
2019-06-07T12:51:13.140Z,2.90
2019-06-07T12:53:40.794Z,3.57
2019-06-07T12:56:08.329Z,3.10
2019-06-07T12:58:39.373Z,2.80
2019-06-07T13:01:05.467Z,2.67
2019-06-07T13:03:33.100Z,2.23
2019-06-07T13:06:00.680Z,2.70
2019-06-07T13:08:28.354Z,2.97
2019-06-07T13:10:55.962Z,2.50
2019-06-07T13:13:24.560Z,2.70
2019-06-07T13:15:52.347Z,2.80
2019-06-07T13:18:21.182Z,2.23
2019-06-07T13:20:49.329Z,3.27
2019-06-07T13:23:18.789Z,2.87
2019-06-07T13:25:46.815Z,2.33
2019-06-07T13:28:14.437Z,2.20
2019-06-07T13:30:41.996Z,2.00
2019-06-07T13:33:09.530Z,2.60
2019-06-07T13:35:37.087Z,2.40
2019-06-07T13:38:04.618Z,2.37
2019-06-07T13:40:32.166Z,2.50
2019-06-07T13:42:59.698Z,2.10
2019-06-07T13:45:28.013Z,1.90
2019-06-07T13:47:55.768Z,2.33
2019-06-07T13:50:24.095Z,1.93
2019-06-07T13:52:51.785Z,2.20
2019-06-07T13:55:19.937Z,1.77
2019-06-07T13:57:47.752Z,2.27
2019-06-07T14:00:15.268Z,1.97
2019-06-07T14:02:42.950Z,1.70
2019-06-07T14:05:10.480Z,2.10
2019-06-07T14:07:38.004Z,2.83
2019-06-07T14:10:05.728Z,2.60
2019-06-07T14:12:33.831Z,2.30
2019-06-07T14:15:01.394Z,2.50
2019-06-07T14:17:30.947Z,1.90
2019-06-07T14:19:58.733Z,1.73
2019-06-07T14:22:26.888Z,1.70
2019-06-07T14:24:54.595Z,1.57
2019-06-07T14:27:23.333Z,1.90
2019-06-07T14:29:51.326Z,1.83
2019-06-07T14:32:18.929Z,2.57
2019-06-07T14:34:46.434Z,2.10
2019-06-07T14:37:13.993Z,1.80
2019-06-07T14:39:41.567Z,2.00
2019-06-07T14:42:10.520Z,2.00
2019-06-07T14:44:38.140Z,1.80
2019-06-07T14:47:05.721Z,1.70
2019-06-07T14:49:34.721Z,1.80
2019-06-07T14:52:02.449Z,1.80
2019-06-07T14:54:32.134Z,1.60
2019-06-07T14:57:02.873Z,1.57
2019-06-07T14:59:30.342Z,1.40
2019-06-07T15:01:58.248Z,1.70
2019-06-07T15:04:26.443Z,1.60
2019-06-07T15:06:54.125Z,1.23
2019-06-07T15:09:21.675Z,2.07
2019-06-07T15:11:49.174Z,1.70
2019-06-07T15:14:17.025Z,1.90
2019-06-07T15:16:44.641Z,1.90
2019-06-07T15:19:12.177Z,2.00
2019-06-07T15:21:39.704Z,1.83
2019-06-07T15:24:07.357Z,1.20
2019-06-07T15:26:34.874Z,1.47
2019-06-07T15:29:02.415Z,1.80
2019-06-07T15:31:30.043Z,1.80
2019-06-07T15:33:57.672Z,1.77
2019-06-07T15:36:25.313Z,1.70
2019-06-07T15:38:52.825Z,1.60
2019-06-07T15:41:20.555Z,1.60
2019-06-07T15:43:48.141Z,1.57
2019-06-07T15:46:15.709Z,1.40
2019-06-07T15:48:43.242Z,1.83
2019-06-07T15:51:10.792Z,1.47
2019-06-07T15:53:44.103Z,1.33
2019-06-07T15:56:07.853Z,1.80
2019-06-07T15:58:35.483Z,1.90
2019-06-07T16:01:03.003Z,1.50
2019-06-07T16:03:31.484Z,1.50
2019-06-07T16:05:59.320Z,1.20
2019-06-07T16:08:26.853Z,1.50
2019-06-07T16:10:54.407Z,1.77
2019-06-07T16:13:22.033Z,1.33
2019-06-07T16:15:49.560Z,1.43
2019-06-07T16:18:17.097Z,1.50
2019-06-07T16:20:44.627Z,1.57
2019-06-07T16:23:12.146Z,1.40
2019-06-07T16:25:40.107Z,1.60
2019-06-07T16:28:07.809Z,1.50
2019-06-07T16:30:36.323Z,1.67
2019-06-07T16:33:03.871Z,1.43
2019-06-07T16:35:31.552Z,2.03
2019-06-07T16:37:59.064Z,1.57
2019-06-07T16:40:26.603Z,1.70
2019-06-07T16:42:54.145Z,1.60
2019-06-07T16:45:21.693Z,1.50
2019-06-07T16:47:49.878Z,1.50
2019-06-07T16:50:17.586Z,1.30
2019-06-07T16:52:46.609Z,1.37
2019-06-07T16:55:14.703Z,1.30
2019-06-07T16:57:42.928Z,1.50
2019-06-07T17:00:10.551Z,1.50
2019-06-07T17:02:38.462Z,1.20
2019-06-07T17:05:06.621Z,1.40
2019-06-07T17:07:34.243Z,1.30
2019-06-07T17:10:02.209Z,1.20
2019-06-07T17:12:29.923Z,1.40
2019-06-07T17:14:57.462Z,1.80
2019-06-07T17:17:25.251Z,1.50
2019-06-07T17:19:53.013Z,1.30
2019-06-07T17:22:20.520Z,1.60
2019-06-07T17:24:48.037Z,1.20
2019-06-07T17:27:15.792Z,1.50
2019-06-07T17:29:43.883Z,1.30
2019-06-07T17:32:11.694Z,1.10
2019-06-07T17:34:39.884Z,1.10
2019-06-07T17:37:08.255Z,1.30
2019-06-07T17:39:35.802Z,1.10
2019-06-07T17:42:03.346Z,1.37
2019-06-07T17:44:30.864Z,1.10
2019-06-07T17:46:58.825Z,1.23
2019-06-07T17:49:26.694Z,1.40
2019-06-07T17:51:54.454Z,1.33
2019-06-07T17:54:22.337Z,1.00
2019-06-07T17:56:50.543Z,1.23
2019-06-07T17:59:18.228Z,1.50
2019-06-07T18:02:06.761Z,1.27
2019-06-07T18:04:15.368Z,1.40
2019-06-07T18:06:43.636Z,1.80
2019-06-07T18:09:14.092Z,1.13
2019-06-07T18:11:40.770Z,1.30
2019-06-07T18:14:11.110Z,1.20
2019-06-07T18:16:38.624Z,1.30
2019-06-07T18:19:06.117Z,1.30
2019-06-07T18:21:33.690Z,1.50
2019-06-07T18:24:01.177Z,1.30
2019-06-07T18:26:28.782Z,1.20
2019-06-07T18:28:56.351Z,1.23
2019-06-07T18:31:23.860Z,1.40
2019-06-07T18:33:51.399Z,1.33
2019-06-07T18:36:18.926Z,1.50
2019-06-07T18:38:46.874Z,1.27
2019-06-07T18:41:14.595Z,1.30
2019-06-07T18:43:42.307Z,1.37
2019-06-07T18:46:10.335Z,1.30
2019-06-07T18:48:37.829Z,1.27
2019-06-07T18:51:05.568Z,1.40
2019-06-07T18:53:33.164Z,1.10
2019-06-07T18:56:00.702Z,1.13
2019-06-07T18:58:29.190Z,1.23
2019-06-07T19:00:57.591Z,1.10
2019-06-07T19:03:25.350Z,1.40
2019-06-07T19:05:54.179Z,1.40
2019-06-07T19:08:21.895Z,1.50
2019-06-07T19:10:50.623Z,1.10
2019-06-07T19:13:18.394Z,1.30
2019-06-07T19:15:45.956Z,1.40
2019-06-07T19:18:13.506Z,1.43
2019-06-07T19:20:41.015Z,1.30
2019-06-07T19:23:09.249Z,1.20
2019-06-07T19:25:36.739Z,1.17
2019-06-07T19:28:04.301Z,1.33
2019-06-07T19:30:32.082Z,1.50
2019-06-07T19:32:59.802Z,1.40
2019-06-07T19:35:28.054Z,1.20
2019-06-07T19:37:55.911Z,1.60
2019-06-07T19:40:23.493Z,2.23
2019-06-07T19:42:52.158Z,1.10
2019-06-07T19:45:30.809Z,1.43
2019-06-07T19:47:49.373Z,1.13
2019-06-07T19:50:16.872Z,1.40
2019-06-07T19:52:44.393Z,1.60
2019-06-07T19:55:11.871Z,1.10
2019-06-07T19:57:39.354Z,1.30
2019-06-07T20:00:13.465Z,1.40
2019-06-07T20:02:36.738Z,1.13
2019-06-07T20:05:06.807Z,1.27
2019-06-07T20:07:34.131Z,1.50
2019-06-07T20:10:02.915Z,1.20
2019-06-07T20:12:30.593Z,1.20
2019-06-07T20:15:18.928Z,1.20
2019-06-07T20:17:27.542Z,1.10
2019-06-07T20:19:56.216Z,1.20
2019-06-07T20:22:24.093Z,1.33
2019-06-07T20:24:51.719Z,1.40
2019-06-07T20:27:19.233Z,1.37
2019-06-07T20:29:46.754Z,1.30
2019-06-07T20:32:14.306Z,1.53
2019-06-07T20:34:44.732Z,1.57
2019-06-07T20:37:11.895Z,1.40
2019-06-07T20:39:39.593Z,1.20
2019-06-07T20:42:07.890Z,1.30
2019-06-07T20:44:35.735Z,1.10
2019-06-07T20:47:04.190Z,1.00
2019-06-07T20:49:31.875Z,1.20
2019-06-07T20:52:00.450Z,1.40
2019-06-07T20:54:28.326Z,1.23
2019-06-07T20:56:56.194Z,1.30
2019-06-07T20:59:24.063Z,1.10
2019-06-07T21:01:51.718Z,1.10
2019-06-07T21:04:19.487Z,1.23
2019-06-07T21:06:47.352Z,1.30
2019-06-07T21:09:14.882Z,1.23
2019-06-07T21:11:43.297Z,1.10
2019-06-07T21:14:11.157Z,1.33
2019-06-07T21:16:38.917Z,1.40
2019-06-07T21:19:06.581Z,1.10
2019-06-07T21:21:34.402Z,1.30
2019-06-07T21:24:02.564Z,1.10
2019-06-07T21:26:30.491Z,1.00
2019-06-07T21:28:58.353Z,1.10
2019-06-07T21:31:26.193Z,1.10
2019-06-07T21:33:53.927Z,0.90
2019-06-07T21:36:21.709Z,0.97
2019-06-07T21:38:49.405Z,1.00
2019-06-07T21:41:17.071Z,1.10
2019-06-07T21:43:44.728Z,1.17
2019-06-07T21:46:19.949Z,1.10
2019-06-07T21:48:42.307Z,1.00
2019-06-07T21:51:10.696Z,1.23
2019-06-07T21:53:38.652Z,1.10
2019-06-07T21:56:07.052Z,1.30
2019-06-07T21:58:35.100Z,1.23
2019-06-07T22:01:09.974Z,1.33
2019-06-07T22:03:38.114Z,1.40
2019-06-07T22:06:07.500Z,1.33
2019-06-07T22:08:35.529Z,1.10
2019-06-07T22:11:03.782Z,1.40
2019-06-07T22:13:31.651Z,1.47
2019-06-07T22:15:59.377Z,1.53
2019-06-07T22:18:27.147Z,1.30
2019-06-07T22:20:55.011Z,1.30
2019-06-07T22:23:22.875Z,1.50
2019-06-07T22:25:50.686Z,1.43
2019-06-07T22:28:18.528Z,1.40
2019-06-07T22:30:46.576Z,1.73
2019-06-07T22:33:15.126Z,1.40
2019-06-07T22:35:42.991Z,1.37
2019-06-07T22:38:10.792Z,1.50
2019-06-07T22:40:38.646Z,1.50
2019-06-07T22:43:07.524Z,1.73
2019-06-07T22:45:35.490Z,2.00
2019-06-07T22:48:03.346Z,1.50
2019-06-07T22:50:31.254Z,1.53
2019-06-07T22:52:59.017Z,1.53
2019-06-07T22:55:26.823Z,2.03
2019-06-07T22:57:56.195Z,1.60
2019-06-07T23:00:24.965Z,1.60
2019-06-07T23:02:52.805Z,1.43
2019-06-07T23:05:20.490Z,1.60
2019-06-07T23:07:48.160Z,2.10
2019-06-07T23:10:17.192Z,1.30
2019-06-07T23:12:45.320Z,1.73
2019-06-07T23:15:13.360Z,1.30
2019-06-07T23:17:41.064Z,1.87
2019-06-07T23:20:09.663Z,1.60
2019-06-07T23:22:37.602Z,1.50
2019-06-07T23:25:05.489Z,1.50
2019-06-07T23:27:34.671Z,1.50
2019-06-07T23:30:08.345Z,1.63
2019-06-07T23:32:31.984Z,1.50
2019-06-07T23:34:59.909Z,1.40
2019-06-07T23:37:27.773Z,1.70
2019-06-07T23:39:55.535Z,1.40
2019-06-07T23:42:23.297Z,1.40
2019-06-07T23:44:51.172Z,2.00
2019-06-07T23:47:20.464Z,1.60
2019-06-07T23:49:48.844Z,1.33
2019-06-07T23:52:17.929Z,1.30
2019-06-07T23:54:45.883Z,1.73
2019-06-07T23:57:13.991Z,1.57
2019-06-07T23:59:41.842Z,1.90
